sensor_id;sensor_type;location;lat;lon;timestamp;temperature;humidity
18083;DHT22;9168;51.194;6.840;2024-03-02T00:01:32;8.70;99.90
18083;DHT22;9168;51.194;6.840;2024-03-02T00:03:59;8.70;99.90
18083;DHT22;9168;51.194;6.840;2024-03-02T00:06:27;8.70;99.90
18083;DHT22;9168;51.194;6.840;2024-03-02T00:08:58;8.70;99.90
18083;DHT22;9168;51.194;6.840;2024-03-02T00:11:24;8.70;99.90
18083;DHT22;9168;51.194;6.840;2024-03-02T00:13:53;8.70;99.90
18083;DHT22;9168;51.194;6.840;2024-03-02T00:16:20;8.70;99.90
18083;DHT22;9168;51.194;6.840;2024-03-02T00:18:47;8.70;99.90
18083;DHT22;9168;51.194;6.840;2024-03-02T00:21:14;8.70;99.90
18083;DHT22;9168;51.194;6.840;2024-03-02T00:23:45;8.80;99.90
18083;DHT22;9168;51.194;6.840;2024-03-02T00:26:12;8.80;99.90
18083;DHT22;9168;51.194;6.840;2024-03-02T00:28:39;8.80;99.90
18083;DHT22;9168;51.194;6.840;2024-03-02T00:31:10;8.70;99.90
18083;DHT22;9168;51.194;6.840;2024-03-02T00:33:41;8.80;99.90
18083;DHT22;9168;51.194;6.840;2024-03-02T00:36:09;8.80;99.90
18083;DHT22;9168;51.194;6.840;2024-03-02T00:38:46;8.80;99.90
18083;DHT22;9168;51.194;6.840;2024-03-02T00:41:17;8.80;99.90
18083;DHT22;9168;51.194;6.840;2024-03-02T00:43:54;8.80;99.90
18083;DHT22;9168;51.194;6.840;2024-03-02T00:46:23;8.80;99.90
18083;DHT22;9168;51.194;6.840;2024-03-02T00:48:54;8.80;99.90
18083;DHT22;9168;51.194;6.840;2024-03-02T00:51:25;8.80;99.90
18083;DHT22;9168;51.194;6.840;2024-03-02T00:53:54;8.80;99.90
18083;DHT22;9168;51.194;6.840;2024-03-02T00:56:22;8.80;99.90
18083;DHT22;9168;51.194;6.840;2024-03-02T00:58:49;8.80;99.90
18083;DHT22;9168;51.194;6.840;2024-03-02T01:01:16;8.80;99.90
18083;DHT22;9168;51.194;6.840;2024-03-02T01:03:43;8.80;99.90
18083;DHT22;9168;51.194;6.840;2024-03-02T01:06:10;8.80;99.90
18083;DHT22;9168;51.194;6.840;2024-03-02T01:08:39;8.80;99.90
18083;DHT22;9168;51.194;6.840;2024-03-02T01:11:07;8.80;99.90
18083;DHT22;9168;51.194;6.840;2024-03-02T01:13:34;8.90;99.90
18083;DHT22;9168;51.194;6.840;2024-03-02T01:16:01;8.80;99.90
18083;DHT22;9168;51.194;6.840;2024-03-02T01:18:29;8.80;99.90
18083;DHT22;9168;51.194;6.840;2024-03-02T01:20:56;8.80;99.90
18083;DHT22;9168;51.194;6.840;2024-03-02T01:23:23;8.80;99.90
18083;DHT22;9168;51.194;6.840;2024-03-02T01:25:50;8.80;99.90
18083;DHT22;9168;51.194;6.840;2024-03-02T01:28:19;8.80;99.90
18083;DHT22;9168;51.194;6.840;2024-03-02T01:30:46;8.80;99.90
18083;DHT22;9168;51.194;6.840;2024-03-02T01:33:13;8.70;99.90
18083;DHT22;9168;51.194;6.840;2024-03-02T01:35:40;8.80;99.90
18083;DHT22;9168;51.194;6.840;2024-03-02T01:38:07;8.70;99.90
18083;DHT22;9168;51.194;6.840;2024-03-02T01:40:34;8.70;99.90
18083;DHT22;9168;51.194;6.840;2024-03-02T01:43:01;8.70;99.90
18083;DHT22;9168;51.194;6.840;2024-03-02T01:45:30;8.80;99.90
18083;DHT22;9168;51.194;6.840;2024-03-02T01:47:57;8.80;99.90
18083;DHT22;9168;51.194;6.840;2024-03-02T01:50:26;8.80;99.90
18083;DHT22;9168;51.194;6.840;2024-03-02T01:52:54;8.80;99.90
18083;DHT22;9168;51.194;6.840;2024-03-02T01:55:21;8.80;99.90
18083;DHT22;9168;51.194;6.840;2024-03-02T01:57:48;8.80;99.90
18083;DHT22;9168;51.194;6.840;2024-03-02T02:00:16;8.80;99.90
18083;DHT22;9168;51.194;6.840;2024-03-02T02:02:45;8.80;99.90
18083;DHT22;9168;51.194;6.840;2024-03-02T02:05:12;8.80;99.90
18083;DHT22;9168;51.194;6.840;2024-03-02T02:07:40;8.80;99.90
18083;DHT22;9168;51.194;6.840;2024-03-02T02:10:08;8.80;99.90
18083;DHT22;9168;51.194;6.840;2024-03-02T02:12:35;8.80;99.90
18083;DHT22;9168;51.194;6.840;2024-03-02T02:15:02;8.90;99.90
18083;DHT22;9168;51.194;6.840;2024-03-02T02:17:29;8.90;99.90
18083;DHT22;9168;51.194;6.840;2024-03-02T02:19:57;8.90;99.90
18083;DHT22;9168;51.194;6.840;2024-03-02T02:22:25;8.90;99.90
18083;DHT22;9168;51.194;6.840;2024-03-02T02:24:52;8.90;99.90
18083;DHT22;9168;51.194;6.840;2024-03-02T02:27:19;8.90;99.90
18083;DHT22;9168;51.194;6.840;2024-03-02T02:29:46;8.90;99.90
18083;DHT22;9168;51.194;6.840;2024-03-02T02:32:13;9.00;99.90
18083;DHT22;9168;51.194;6.840;2024-03-02T02:34:40;9.00;99.90
18083;DHT22;9168;51.194;6.840;2024-03-02T02:37:07;9.10;99.90
18083;DHT22;9168;51.194;6.840;2024-03-02T02:39:35;9.10;99.90
18083;DHT22;9168;51.194;6.840;2024-03-02T02:42:02;9.10;99.90
18083;DHT22;9168;51.194;6.840;2024-03-02T02:44:29;9.10;99.90
18083;DHT22;9168;51.194;6.840;2024-03-02T02:46:56;9.10;99.90
18083;DHT22;9168;51.194;6.840;2024-03-02T02:49:23;9.10;99.90
18083;DHT22;9168;51.194;6.840;2024-03-02T02:51:50;9.20;99.90
18083;DHT22;9168;51.194;6.840;2024-03-02T02:54:17;9.20;99.90
18083;DHT22;9168;51.194;6.840;2024-03-02T02:56:45;9.10;99.90
18083;DHT22;9168;51.194;6.840;2024-03-02T02:59:12;9.10;99.90
18083;DHT22;9168;51.194;6.840;2024-03-02T03:01:39;9.10;99.90
18083;DHT22;9168;51.194;6.840;2024-03-02T03:04:06;9.10;99.90
18083;DHT22;9168;51.194;6.840;2024-03-02T03:06:33;9.10;99.90
18083;DHT22;9168;51.194;6.840;2024-03-02T03:09:00;9.10;99.90
18083;DHT22;9168;51.194;6.840;2024-03-02T03:11:27;9.10;99.90
18083;DHT22;9168;51.194;6.840;2024-03-02T03:13:55;9.10;99.90
18083;DHT22;9168;51.194;6.840;2024-03-02T03:16:22;9.10;99.90
18083;DHT22;9168;51.194;6.840;2024-03-02T03:18:49;9.10;99.90
18083;DHT22;9168;51.194;6.840;2024-03-02T03:21:18;9.10;99.90
18083;DHT22;9168;51.194;6.840;2024-03-02T03:23:45;9.10;99.90
18083;DHT22;9168;51.194;6.840;2024-03-02T03:26:12;9.10;99.90
18083;DHT22;9168;51.194;6.840;2024-03-02T03:28:39;9.10;99.90
18083;DHT22;9168;51.194;6.840;2024-03-02T03:31:07;9.10;99.90
18083;DHT22;9168;51.194;6.840;2024-03-02T03:33:34;9.10;99.90
18083;DHT22;9168;51.194;6.840;2024-03-02T03:36:01;9.20;99.90
18083;DHT22;9168;51.194;6.840;2024-03-02T03:38:29;9.10;99.90
18083;DHT22;9168;51.194;6.840;2024-03-02T03:40:56;9.10;99.90
18083;DHT22;9168;51.194;6.840;2024-03-02T03:43:22;9.10;99.90
18083;DHT22;9168;51.194;6.840;2024-03-02T03:45:49;9.10;99.90
18083;DHT22;9168;51.194;6.840;2024-03-02T03:48:18;9.10;99.90
18083;DHT22;9168;51.194;6.840;2024-03-02T03:50:45;9.10;99.90
18083;DHT22;9168;51.194;6.840;2024-03-02T03:53:12;9.10;99.90
18083;DHT22;9168;51.194;6.840;2024-03-02T03:55:40;9.00;99.90
18083;DHT22;9168;51.194;6.840;2024-03-02T03:58:07;9.00;99.90
18083;DHT22;9168;51.194;6.840;2024-03-02T04:00:34;9.00;99.90
18083;DHT22;9168;51.194;6.840;2024-03-02T04:03:01;9.00;99.90
18083;DHT22;9168;51.194;6.840;2024-03-02T04:05:29;9.00;99.90
18083;DHT22;9168;51.194;6.840;2024-03-02T04:07:56;8.90;99.90
18083;DHT22;9168;51.194;6.840;2024-03-02T04:10:23;8.90;99.90
18083;DHT22;9168;51.194;6.840;2024-03-02T04:12:50;8.90;99.90
18083;DHT22;9168;51.194;6.840;2024-03-02T04:15:17;8.80;99.90
18083;DHT22;9168;51.194;6.840;2024-03-02T04:17:45;8.80;99.90
18083;DHT22;9168;51.194;6.840;2024-03-02T04:20:12;8.80;99.90
18083;DHT22;9168;51.194;6.840;2024-03-02T04:22:40;8.80;99.90
18083;DHT22;9168;51.194;6.840;2024-03-02T04:25:08;8.80;99.90
18083;DHT22;9168;51.194;6.840;2024-03-02T04:27:35;8.70;99.90
18083;DHT22;9168;51.194;6.840;2024-03-02T04:30:03;8.70;99.90
18083;DHT22;9168;51.194;6.840;2024-03-02T04:32:30;8.70;99.90
18083;DHT22;9168;51.194;6.840;2024-03-02T04:34:57;8.70;99.90
18083;DHT22;9168;51.194;6.840;2024-03-02T04:37:24;8.60;99.90
18083;DHT22;9168;51.194;6.840;2024-03-02T04:39:52;8.60;99.90
18083;DHT22;9168;51.194;6.840;2024-03-02T04:42:19;8.50;99.90
18083;DHT22;9168;51.194;6.840;2024-03-02T04:44:46;8.50;99.90
18083;DHT22;9168;51.194;6.840;2024-03-02T04:47:13;8.50;99.90
18083;DHT22;9168;51.194;6.840;2024-03-02T04:49:40;8.50;99.90
18083;DHT22;9168;51.194;6.840;2024-03-02T04:52:06;8.50;99.90
18083;DHT22;9168;51.194;6.840;2024-03-02T04:54:33;8.40;99.90
18083;DHT22;9168;51.194;6.840;2024-03-02T04:57:22;8.40;99.90
18083;DHT22;9168;51.194;6.840;2024-03-02T04:59:49;8.40;99.90
18083;DHT22;9168;51.194;6.840;2024-03-02T05:02:16;8.30;99.90
18083;DHT22;9168;51.194;6.840;2024-03-02T05:04:43;8.30;99.90
18083;DHT22;9168;51.194;6.840;2024-03-02T05:07:09;8.30;99.90
18083;DHT22;9168;51.194;6.840;2024-03-02T05:09:36;8.30;99.90
18083;DHT22;9168;51.194;6.840;2024-03-02T05:12:03;8.30;99.90
18083;DHT22;9168;51.194;6.840;2024-03-02T05:14:56;8.30;99.90
18083;DHT22;9168;51.194;6.840;2024-03-02T05:17:22;8.30;99.90
18083;DHT22;9168;51.194;6.840;2024-03-02T05:19:49;8.30;99.90
18083;DHT22;9168;51.194;6.840;2024-03-02T05:22:15;8.30;99.90
18083;DHT22;9168;51.194;6.840;2024-03-02T05:24:42;8.30;99.90
18083;DHT22;9168;51.194;6.840;2024-03-02T05:27:09;8.30;99.90
18083;DHT22;9168;51.194;6.840;2024-03-02T05:29:36;8.30;99.90
18083;DHT22;9168;51.194;6.840;2024-03-02T05:32:05;8.30;99.90
18083;DHT22;9168;51.194;6.840;2024-03-02T05:34:31;8.20;99.90
18083;DHT22;9168;51.194;6.840;2024-03-02T05:37:00;8.20;99.90
18083;DHT22;9168;51.194;6.840;2024-03-02T05:39:27;8.20;99.90
18083;DHT22;9168;51.194;6.840;2024-03-02T05:41:54;8.20;99.90
18083;DHT22;9168;51.194;6.840;2024-03-02T05:44:21;8.10;99.90
18083;DHT22;9168;51.194;6.840;2024-03-02T05:46:48;8.20;99.90
18083;DHT22;9168;51.194;6.840;2024-03-02T05:49:16;8.10;99.90
18083;DHT22;9168;51.194;6.840;2024-03-02T05:51:43;8.10;99.90
18083;DHT22;9168;51.194;6.840;2024-03-02T05:54:10;8.10;99.90
18083;DHT22;9168;51.194;6.840;2024-03-02T05:56:37;8.10;99.90
18083;DHT22;9168;51.194;6.840;2024-03-02T05:59:04;8.10;99.90
18083;DHT22;9168;51.194;6.840;2024-03-02T06:01:38;8.10;99.90
18083;DHT22;9168;51.194;6.840;2024-03-02T06:04:05;8.10;99.90
18083;DHT22;9168;51.194;6.840;2024-03-02T06:06:33;8.00;99.90
18083;DHT22;9168;51.194;6.840;2024-03-02T06:09:00;8.00;99.90
18083;DHT22;9168;51.194;6.840;2024-03-02T06:11:28;7.90;99.90
18083;DHT22;9168;51.194;6.840;2024-03-02T06:13:55;7.90;99.90
18083;DHT22;9168;51.194;6.840;2024-03-02T06:16:22;7.90;99.90
18083;DHT22;9168;51.194;6.840;2024-03-02T06:18:48;7.90;99.90
18083;DHT22;9168;51.194;6.840;2024-03-02T06:21:15;7.90;99.90
18083;DHT22;9168;51.194;6.840;2024-03-02T06:23:45;8.00;99.90
18083;DHT22;9168;51.194;6.840;2024-03-02T06:26:12;8.00;99.90
18083;DHT22;9168;51.194;6.840;2024-03-02T06:28:39;8.00;99.90
18083;DHT22;9168;51.194;6.840;2024-03-02T06:31:06;8.00;99.90
18083;DHT22;9168;51.194;6.840;2024-03-02T06:33:32;8.10;99.90
18083;DHT22;9168;51.194;6.840;2024-03-02T06:35:59;8.00;99.90
18083;DHT22;9168;51.194;6.840;2024-03-02T06:38:26;8.00;99.90
18083;DHT22;9168;51.194;6.840;2024-03-02T06:40:55;8.00;99.90
18083;DHT22;9168;51.194;6.840;2024-03-02T06:43:21;8.00;99.90
18083;DHT22;9168;51.194;6.840;2024-03-02T06:45:49;7.90;99.90
18083;DHT22;9168;51.194;6.840;2024-03-02T06:48:16;7.90;99.90
18083;DHT22;9168;51.194;6.840;2024-03-02T06:50:45;8.00;99.90
18083;DHT22;9168;51.194;6.840;2024-03-02T06:53:13;8.00;99.90
18083;DHT22;9168;51.194;6.840;2024-03-02T06:55:43;8.00;99.90
18083;DHT22;9168;51.194;6.840;2024-03-02T06:58:11;8.00;99.90
18083;DHT22;9168;51.194;6.840;2024-03-02T07:00:38;8.10;99.90
18083;DHT22;9168;51.194;6.840;2024-03-02T07:03:05;8.20;99.90
18083;DHT22;9168;51.194;6.840;2024-03-02T07:05:32;8.20;99.90
18083;DHT22;9168;51.194;6.840;2024-03-02T07:07:58;8.30;99.90
18083;DHT22;9168;51.194;6.840;2024-03-02T07:10:27;8.30;99.90
18083;DHT22;9168;51.194;6.840;2024-03-02T07:12:54;8.30;99.90
18083;DHT22;9168;51.194;6.840;2024-03-02T07:15:22;8.40;99.90
18083;DHT22;9168;51.194;6.840;2024-03-02T07:18:08;8.40;99.90
18083;DHT22;9168;51.194;6.840;2024-03-02T07:20:35;8.40;99.90
18083;DHT22;9168;51.194;6.840;2024-03-02T07:23:06;8.50;99.90
18083;DHT22;9168;51.194;6.840;2024-03-02T07:25:34;8.50;99.90
18083;DHT22;9168;51.194;6.840;2024-03-02T07:28:01;8.50;99.90
18083;DHT22;9168;51.194;6.840;2024-03-02T07:30:31;8.50;99.90
18083;DHT22;9168;51.194;6.840;2024-03-02T07:32:58;8.60;99.90
18083;DHT22;9168;51.194;6.840;2024-03-02T07:35:25;8.60;99.90
18083;DHT22;9168;51.194;6.840;2024-03-02T07:37:53;8.70;99.90
18083;DHT22;9168;51.194;6.840;2024-03-02T07:40:20;8.70;99.90
18083;DHT22;9168;51.194;6.840;2024-03-02T07:42:46;8.80;99.90
18083;DHT22;9168;51.194;6.840;2024-03-02T07:45:13;8.80;99.90
18083;DHT22;9168;51.194;6.840;2024-03-02T07:47:42;8.90;99.90
18083;DHT22;9168;51.194;6.840;2024-03-02T07:50:09;8.90;99.90
18083;DHT22;9168;51.194;6.840;2024-03-02T07:52:36;9.00;99.90
18083;DHT22;9168;51.194;6.840;2024-03-02T07:55:04;9.00;99.90
18083;DHT22;9168;51.194;6.840;2024-03-02T07:57:31;9.00;99.90
18083;DHT22;9168;51.194;6.840;2024-03-02T07:59:58;9.10;99.90
18083;DHT22;9168;51.194;6.840;2024-03-02T08:02:25;9.20;99.90
18083;DHT22;9168;51.194;6.840;2024-03-02T08:04:53;9.20;99.90
18083;DHT22;9168;51.194;6.840;2024-03-02T08:07:20;9.30;99.90
18083;DHT22;9168;51.194;6.840;2024-03-02T08:09:47;9.40;99.90
18083;DHT22;9168;51.194;6.840;2024-03-02T08:12:14;9.40;99.90
18083;DHT22;9168;51.194;6.840;2024-03-02T08:14:41;9.50;99.90
18083;DHT22;9168;51.194;6.840;2024-03-02T08:17:08;9.50;99.90
18083;DHT22;9168;51.194;6.840;2024-03-02T08:19:37;9.60;99.90
18083;DHT22;9168;51.194;6.840;2024-03-02T08:22:05;9.60;99.90
18083;DHT22;9168;51.194;6.840;2024-03-02T08:24:32;9.70;99.90
18083;DHT22;9168;51.194;6.840;2024-03-02T08:27:00;9.80;99.90
18083;DHT22;9168;51.194;6.840;2024-03-02T08:29:27;9.80;99.90
18083;DHT22;9168;51.194;6.840;2024-03-02T08:31:54;9.90;99.90
18083;DHT22;9168;51.194;6.840;2024-03-02T08:34:20;9.80;99.90
18083;DHT22;9168;51.194;6.840;2024-03-02T08:36:47;9.90;99.90
18083;DHT22;9168;51.194;6.840;2024-03-02T08:39:15;9.90;99.90
18083;DHT22;9168;51.194;6.840;2024-03-02T08:41:44;10.00;99.90
18083;DHT22;9168;51.194;6.840;2024-03-02T08:44:11;10.00;99.90
18083;DHT22;9168;51.194;6.840;2024-03-02T08:46:38;10.00;99.90
18083;DHT22;9168;51.194;6.840;2024-03-02T08:49:06;10.00;99.90
18083;DHT22;9168;51.194;6.840;2024-03-02T08:51:33;10.00;99.90
18083;DHT22;9168;51.194;6.840;2024-03-02T08:54:00;10.00;99.90
18083;DHT22;9168;51.194;6.840;2024-03-02T08:56:28;9.90;99.90
18083;DHT22;9168;51.194;6.840;2024-03-02T08:58:55;9.90;99.90
18083;DHT22;9168;51.194;6.840;2024-03-02T09:01:22;9.90;99.90
18083;DHT22;9168;51.194;6.840;2024-03-02T09:03:51;10.00;99.90
18083;DHT22;9168;51.194;6.840;2024-03-02T09:06:18;10.00;99.90
18083;DHT22;9168;51.194;6.840;2024-03-02T09:08:45;10.10;99.90
18083;DHT22;9168;51.194;6.840;2024-03-02T09:11:13;10.20;99.90
18083;DHT22;9168;51.194;6.840;2024-03-02T09:13:42;10.20;99.90
18083;DHT22;9168;51.194;6.840;2024-03-02T09:16:09;10.30;99.90
18083;DHT22;9168;51.194;6.840;2024-03-02T09:18:37;10.40;99.90
18083;DHT22;9168;51.194;6.840;2024-03-02T09:21:04;10.40;99.90
18083;DHT22;9168;51.194;6.840;2024-03-02T09:23:33;10.50;99.90
18083;DHT22;9168;51.194;6.840;2024-03-02T09:26:00;10.50;99.90
18083;DHT22;9168;51.194;6.840;2024-03-02T09:28:27;10.60;99.90
18083;DHT22;9168;51.194;6.840;2024-03-02T09:30:55;10.60;99.90
18083;DHT22;9168;51.194;6.840;2024-03-02T09:33:22;10.70;99.90
18083;DHT22;9168;51.194;6.840;2024-03-02T09:35:49;10.70;99.90
18083;DHT22;9168;51.194;6.840;2024-03-02T09:38:16;10.80;99.90
18083;DHT22;9168;51.194;6.840;2024-03-02T09:40:43;10.90;99.90
18083;DHT22;9168;51.194;6.840;2024-03-02T09:43:10;11.00;99.90
18083;DHT22;9168;51.194;6.840;2024-03-02T09:45:37;11.10;99.90
18083;DHT22;9168;51.194;6.840;2024-03-02T09:48:07;11.10;99.90
18083;DHT22;9168;51.194;6.840;2024-03-02T09:50:34;11.10;99.90
18083;DHT22;9168;51.194;6.840;2024-03-02T09:53:01;11.20;99.90
18083;DHT22;9168;51.194;6.840;2024-03-02T09:55:28;11.20;99.90
18083;DHT22;9168;51.194;6.840;2024-03-02T09:57:55;11.20;99.90
18083;DHT22;9168;51.194;6.840;2024-03-02T10:00:28;11.30;99.90
18083;DHT22;9168;51.194;6.840;2024-03-02T10:02:55;11.40;99.90
18083;DHT22;9168;51.194;6.840;2024-03-02T10:05:26;11.40;99.90
18083;DHT22;9168;51.194;6.840;2024-03-02T10:08:00;11.50;99.90
18083;DHT22;9168;51.194;6.840;2024-03-02T10:10:35;11.60;99.90
18083;DHT22;9168;51.194;6.840;2024-03-02T10:13:06;11.70;99.90
18083;DHT22;9168;51.194;6.840;2024-03-02T10:15:34;11.80;99.90
18083;DHT22;9168;51.194;6.840;2024-03-02T10:18:03;11.80;99.90
18083;DHT22;9168;51.194;6.840;2024-03-02T10:20:31;11.80;99.90
18083;DHT22;9168;51.194;6.840;2024-03-02T10:23:10;11.90;99.90
18083;DHT22;9168;51.194;6.840;2024-03-02T10:25:36;11.90;99.90
18083;DHT22;9168;51.194;6.840;2024-03-02T10:28:04;12.00;99.90
18083;DHT22;9168;51.194;6.840;2024-03-02T10:30:32;12.00;99.90
18083;DHT22;9168;51.194;6.840;2024-03-02T10:33:00;12.20;99.90
18083;DHT22;9168;51.194;6.840;2024-03-02T10:35:27;12.20;99.90
18083;DHT22;9168;51.194;6.840;2024-03-02T10:37:55;12.40;99.90
18083;DHT22;9168;51.194;6.840;2024-03-02T10:40:22;12.60;99.90
18083;DHT22;9168;51.194;6.840;2024-03-02T10:42:50;12.80;99.90
18083;DHT22;9168;51.194;6.840;2024-03-02T10:45:19;13.00;99.90
18083;DHT22;9168;51.194;6.840;2024-03-02T10:47:47;13.10;99.90
18083;DHT22;9168;51.194;6.840;2024-03-02T10:50:14;13.30;99.90
18083;DHT22;9168;51.194;6.840;2024-03-02T10:52:41;13.40;99.90
18083;DHT22;9168;51.194;6.840;2024-03-02T10:55:10;13.60;99.90
18083;DHT22;9168;51.194;6.840;2024-03-02T10:57:42;13.80;99.90
18083;DHT22;9168;51.194;6.840;2024-03-02T11:00:12;13.90;99.90
18083;DHT22;9168;51.194;6.840;2024-03-02T11:02:48;14.30;99.90
18083;DHT22;9168;51.194;6.840;2024-03-02T11:05:26;14.60;99.90
18083;DHT22;9168;51.194;6.840;2024-03-02T11:07:57;15.10;99.90
18083;DHT22;9168;51.194;6.840;2024-03-02T11:10:28;15.70;99.90
18083;DHT22;9168;51.194;6.840;2024-03-02T11:13:01;16.10;99.90
18083;DHT22;9168;51.194;6.840;2024-03-02T11:15:30;16.30;99.90
18083;DHT22;9168;51.194;6.840;2024-03-02T11:17:58;16.50;99.90
18083;DHT22;9168;51.194;6.840;2024-03-02T11:20:26;17.00;99.90
18083;DHT22;9168;51.194;6.840;2024-03-02T11:22:54;17.60;99.90
18083;DHT22;9168;51.194;6.840;2024-03-02T11:25:26;18.40;99.90
18083;DHT22;9168;51.194;6.840;2024-03-02T11:28:00;18.70;99.90
18083;DHT22;9168;51.194;6.840;2024-03-02T11:30:49;18.90;99.90
18083;DHT22;9168;51.194;6.840;2024-03-02T11:33:26;18.70;99.90
18083;DHT22;9168;51.194;6.840;2024-03-02T11:35:56;18.90;99.90
18083;DHT22;9168;51.194;6.840;2024-03-02T11:38:24;19.50;99.90
18083;DHT22;9168;51.194;6.840;2024-03-02T11:40:55;20.30;99.90
18083;DHT22;9168;51.194;6.840;2024-03-02T11:43:22;20.20;99.90
18083;DHT22;9168;51.194;6.840;2024-03-02T11:45:56;20.20;99.90
18083;DHT22;9168;51.194;6.840;2024-03-02T11:48:25;20.20;99.90
18083;DHT22;9168;51.194;6.840;2024-03-02T11:50:52;20.10;99.90
18083;DHT22;9168;51.194;6.840;2024-03-02T11:53:20;20.20;99.90
18083;DHT22;9168;51.194;6.840;2024-03-02T11:55:47;20.10;99.90
18083;DHT22;9168;51.194;6.840;2024-03-02T11:58:17;19.60;99.90
18083;DHT22;9168;51.194;6.840;2024-03-02T12:00:46;20.00;99.90
18083;DHT22;9168;51.194;6.840;2024-03-02T12:03:13;19.80;99.90
18083;DHT22;9168;51.194;6.840;2024-03-02T12:05:41;19.30;99.90
18083;DHT22;9168;51.194;6.840;2024-03-02T12:08:09;19.50;99.90
18083;DHT22;9168;51.194;6.840;2024-03-02T12:10:36;19.60;99.90
18083;DHT22;9168;51.194;6.840;2024-03-02T12:13:05;19.40;99.90
18083;DHT22;9168;51.194;6.840;2024-03-02T12:15:35;19.30;99.90
18083;DHT22;9168;51.194;6.840;2024-03-02T12:18:03;18.90;99.90
18083;DHT22;9168;51.194;6.840;2024-03-02T12:20:31;18.70;99.90
18083;DHT22;9168;51.194;6.840;2024-03-02T12:22:59;18.30;99.90
18083;DHT22;9168;51.194;6.840;2024-03-02T12:25:27;17.70;99.90
18083;DHT22;9168;51.194;6.840;2024-03-02T12:27:55;17.30;99.90
18083;DHT22;9168;51.194;6.840;2024-03-02T12:30:23;16.80;99.90
18083;DHT22;9168;51.194;6.840;2024-03-02T12:32:51;16.10;99.90
18083;DHT22;9168;51.194;6.840;2024-03-02T12:35:18;15.90;99.90
18083;DHT22;9168;51.194;6.840;2024-03-02T12:37:47;15.70;99.90
18083;DHT22;9168;51.194;6.840;2024-03-02T12:40:16;15.70;99.90
18083;DHT22;9168;51.194;6.840;2024-03-02T12:42:44;15.60;99.90
18083;DHT22;9168;51.194;6.840;2024-03-02T12:45:12;15.50;99.90
18083;DHT22;9168;51.194;6.840;2024-03-02T12:47:40;15.50;99.90
18083;DHT22;9168;51.194;6.840;2024-03-02T12:50:09;15.40;99.90
18083;DHT22;9168;51.194;6.840;2024-03-02T12:52:36;15.40;99.90
18083;DHT22;9168;51.194;6.840;2024-03-02T12:55:05;15.30;99.90
18083;DHT22;9168;51.194;6.840;2024-03-02T12:57:32;15.30;99.90
18083;DHT22;9168;51.194;6.840;2024-03-02T13:00:00;15.30;99.90
18083;DHT22;9168;51.194;6.840;2024-03-02T13:02:29;15.10;99.90
18083;DHT22;9168;51.194;6.840;2024-03-02T13:04:57;15.00;99.90
18083;DHT22;9168;51.194;6.840;2024-03-02T13:07:25;14.90;99.90
18083;DHT22;9168;51.194;6.840;2024-03-02T13:09:52;14.70;99.90
18083;DHT22;9168;51.194;6.840;2024-03-02T13:12:21;14.60;99.90
18083;DHT22;9168;51.194;6.840;2024-03-02T13:14:48;14.50;99.90
18083;DHT22;9168;51.194;6.840;2024-03-02T13:17:17;14.40;99.90
18083;DHT22;9168;51.194;6.840;2024-03-02T13:19:51;14.40;99.90
18083;DHT22;9168;51.194;6.840;2024-03-02T13:22:19;14.20;99.90
18083;DHT22;9168;51.194;6.840;2024-03-02T13:24:48;14.30;99.90
18083;DHT22;9168;51.194;6.840;2024-03-02T13:27:15;14.20;99.90
18083;DHT22;9168;51.194;6.840;2024-03-02T13:29:45;14.30;99.90
18083;DHT22;9168;51.194;6.840;2024-03-02T13:32:12;14.40;99.90
18083;DHT22;9168;51.194;6.840;2024-03-02T13:34:39;14.50;99.90
18083;DHT22;9168;51.194;6.840;2024-03-02T13:37:05;14.50;99.90
18083;DHT22;9168;51.194;6.840;2024-03-02T13:39:32;14.70;99.90
18083;DHT22;9168;51.194;6.840;2024-03-02T13:42:07;14.80;99.90
18083;DHT22;9168;51.194;6.840;2024-03-02T13:44:34;14.90;99.90
18083;DHT22;9168;51.194;6.840;2024-03-02T13:47:01;15.00;99.90
18083;DHT22;9168;51.194;6.840;2024-03-02T13:49:28;15.00;99.90
18083;DHT22;9168;51.194;6.840;2024-03-02T13:51:59;15.10;99.90
18083;DHT22;9168;51.194;6.840;2024-03-02T13:54:28;15.10;99.90
18083;DHT22;9168;51.194;6.840;2024-03-02T13:56:55;15.10;99.90
18083;DHT22;9168;51.194;6.840;2024-03-02T13:59:25;14.90;99.90
18083;DHT22;9168;51.194;6.840;2024-03-02T14:01:53;14.90;99.90
18083;DHT22;9168;51.194;6.840;2024-03-02T14:04:20;14.80;99.90
18083;DHT22;9168;51.194;6.840;2024-03-02T14:06:47;14.70;99.90
18083;DHT22;9168;51.194;6.840;2024-03-02T14:09:14;14.80;99.90
18083;DHT22;9168;51.194;6.840;2024-03-02T14:11:41;14.70;99.90
18083;DHT22;9168;51.194;6.840;2024-03-02T14:14:09;14.60;99.90
18083;DHT22;9168;51.194;6.840;2024-03-02T14:16:37;14.60;99.90
18083;DHT22;9168;51.194;6.840;2024-03-02T14:19:05;14.60;99.90
18083;DHT22;9168;51.194;6.840;2024-03-02T14:21:32;14.60;99.90
18083;DHT22;9168;51.194;6.840;2024-03-02T14:24:01;14.60;99.90
18083;DHT22;9168;51.194;6.840;2024-03-02T14:26:28;14.60;99.90
18083;DHT22;9168;51.194;6.840;2024-03-02T14:28:58;14.60;99.90
18083;DHT22;9168;51.194;6.840;2024-03-02T14:31:26;14.60;99.90
18083;DHT22;9168;51.194;6.840;2024-03-02T14:33:55;14.60;99.90
18083;DHT22;9168;51.194;6.840;2024-03-02T14:36:22;14.60;99.90
18083;DHT22;9168;51.194;6.840;2024-03-02T14:38:49;14.70;99.90
18083;DHT22;9168;51.194;6.840;2024-03-02T14:41:16;14.80;99.90
18083;DHT22;9168;51.194;6.840;2024-03-02T14:43:43;14.90;99.90
18083;DHT22;9168;51.194;6.840;2024-03-02T14:46:10;14.80;99.90
18083;DHT22;9168;51.194;6.840;2024-03-02T14:48:38;14.80;99.90
18083;DHT22;9168;51.194;6.840;2024-03-02T14:51:06;14.70;99.90
18083;DHT22;9168;51.194;6.840;2024-03-02T14:53:33;14.80;99.90
18083;DHT22;9168;51.194;6.840;2024-03-02T14:56:01;14.90;99.90
18083;DHT22;9168;51.194;6.840;2024-03-02T14:58:27;15.00;99.90
18083;DHT22;9168;51.194;6.840;2024-03-02T15:00:54;15.00;99.90
18083;DHT22;9168;51.194;6.840;2024-03-02T15:03:21;15.10;99.90
18083;DHT22;9168;51.194;6.840;2024-03-02T15:05:48;15.10;99.90
18083;DHT22;9168;51.194;6.840;2024-03-02T15:08:18;15.10;99.90
18083;DHT22;9168;51.194;6.840;2024-03-02T15:10:45;15.30;99.90
18083;DHT22;9168;51.194;6.840;2024-03-02T15:13:12;15.30;99.90
18083;DHT22;9168;51.194;6.840;2024-03-02T15:15:39;15.30;99.90
18083;DHT22;9168;51.194;6.840;2024-03-02T15:18:06;15.10;99.90
18083;DHT22;9168;51.194;6.840;2024-03-02T15:20:33;15.10;99.90
18083;DHT22;9168;51.194;6.840;2024-03-02T15:23:00;15.10;99.90
18083;DHT22;9168;51.194;6.840;2024-03-02T15:25:28;15.20;99.90
18083;DHT22;9168;51.194;6.840;2024-03-02T15:27:55;15.40;99.90
18083;DHT22;9168;51.194;6.840;2024-03-02T15:30:22;15.70;99.90
18083;DHT22;9168;51.194;6.840;2024-03-02T15:32:49;15.80;99.90
18083;DHT22;9168;51.194;6.840;2024-03-02T15:35:17;15.90;99.90
18083;DHT22;9168;51.194;6.840;2024-03-02T15:37:44;15.60;99.90
18083;DHT22;9168;51.194;6.840;2024-03-02T15:40:10;15.30;99.90
18083;DHT22;9168;51.194;6.840;2024-03-02T15:42:39;15.10;99.90
18083;DHT22;9168;51.194;6.840;2024-03-02T15:45:06;15.00;99.90
18083;DHT22;9168;51.194;6.840;2024-03-02T15:47:34;14.80;99.90
18083;DHT22;9168;51.194;6.840;2024-03-02T15:50:01;14.70;99.90
18083;DHT22;9168;51.194;6.840;2024-03-02T15:52:29;14.60;99.90
18083;DHT22;9168;51.194;6.840;2024-03-02T15:54:56;14.60;99.90
18083;DHT22;9168;51.194;6.840;2024-03-02T15:57:23;14.50;99.90
18083;DHT22;9168;51.194;6.840;2024-03-02T15:59:52;14.50;99.90